• Join FlightAware (Why Join?)
  • Login
  • US Flag 
06:15PM EDT


 

Airport Tracker/Info


-or-


 

Live Flight TrackerFlight Track Log ✈ EJA839 ✈ 20-Apr-2013 ✈ KUGN - KBED

Flight Track Log - Related Links

Times and Time Zones

All times are in EDT time to prevent confusion due to time zone crossing. See the EJA839 flight status page for this flight to view local times or setup timezone preferences in your user account.

Time Position Orientation Groundspeed Altitude Reporting Facility
EDT Latitude Longitude Course Direction KTS MPH feet Rate Location/Type
09:22PM 42.4333 -87.8000 101° East 206 237 3,000  Level Chicago TRACON
09:23PM 42.3692 -87.7667 159° South 225 259 6,400 2,880 Climbing Chicago Center
09:24PM 42.3111 -87.7294 155° Southeast 251 289 9,200 2,820 Climbing Chicago Center
09:25PM 42.2708 -87.6353 120° Southeast 290 334 12,300 3,180 Climbing Chicago Center
09:26PM 42.2728 -87.4872 89° East 326 375 15,800 2,940 Climbing Chicago Center
09:27PM 42.2890 -87.1562 101° East  Level FlightAware Approximate
09:27PM 42.2750 -87.3561 89° East 345 397 18,300  Level Chicago Center
09:28PM 42.2767 -87.2200 89° East 358 412 21,000 2,340 Climbing Chicago Center
09:29PM 42.2794 -87.0794 88° East 371 427 23,100 2,040 Climbing Chicago Center
09:30PM 42.2806 -86.9286 89° East 395 455 25,200 1,980 Climbing Chicago Center
09:31PM 42.2822 -86.7767 89° East 404 465 27,200 1,980 Climbing Chicago Center
09:32PM 42.2847 -86.6094 89° East 420 483 29,200 1,920 Climbing Chicago Center
09:33PM 42.2869 -86.4489 89° East 427 491 31,100 1,800 Climbing Chicago Center
09:34PM 42.2875 -86.2886 90° East 428 493 32,900 1,740 Climbing Chicago Center
09:35PM 42.2889 -86.1292 89° East 425 489 34,700 1,620 Climbing Chicago Center
09:36PM 42.2900 -85.9858 89° East 419 482 36,300 1,620 Climbing Chicago Center
09:37PM 42.2903 -85.8381 90° East 402 463 38,000 1,380 Climbing Chicago Center
09:38PM 42.2900 -85.6667 90° East 387 445 39,200 900 Climbing Chicago Center
09:39PM 42.2911 -85.5228 89° East 386 444 39,900 600 Climbing Chicago Center
09:40PM 42.2900 -85.3767 91° East 389 448 40,500 480 Climbing Chicago Center
09:40PM 42.2914 -85.3306 88° East 386 444 40,600 360 Climbing Cleveland Center
09:41PM 42.2911 -85.1817 90° East 391 450 41,000 180 Climbing Cleveland Center
09:42PM 42.2931 -85.0272 89° East 396 456 41,000  Level Cleveland Center
09:43PM 42.2908 -84.8642 91° East 412 474 41,000  Level Cleveland Center
09:44PM 42.2925 -84.7069 89° East 424 488 41,000  Level Cleveland Center
09:45PM 42.2858 -84.5381 93° East 435 501 41,000  Level Cleveland Center
09:46PM 42.2997 -84.3706 84° East 441 507 41,000  Level Cleveland Center
09:47PM 42.3219 -84.2033 80° East 446 513 41,000  Level Cleveland Center
09:48PM 42.3458 -84.0333 79° East 451 519 41,000  Level Cleveland Center
09:49PM 42.3697 -83.8631 79° East 451 519 41,000  Level Cleveland Center
09:50PM 42.3953 -83.6928 78° East 458 527 41,000  Level Cleveland Center
09:51PM 42.4097 -83.5361 83° East 458 527 41,000  Level Cleveland Center
09:52PM 42.4161 -83.3619 87° East 463 533 41,000  Level Cleveland Center
09:53PM 42.4228 -83.1739 87° East 458 527 41,000  Level Cleveland Center
09:54PM 42.4264 -83.0022 88° East 458 527 41,000  Level Cleveland Center
09:55PM 42.4342 -82.8253 87° East 458 527 41,000  Level Cleveland Center
09:56PM 42.4375 -82.6511 88° East 458 527 41,000  Level Cleveland Center
09:57PM 42.4425 -82.4767 88° East 458 527 41,000  Level Cleveland Center
09:58PM 42.4494 -82.2997 87° East 458 527 41,000  Level Cleveland Center
09:59PM 42.4539 -82.1253 88° East 458 527 41,000  Level Cleveland Center
10:00PM 42.4561 -81.9508 89° East 458 527 41,000  Level Cleveland Center
10:01PM 42.4622 -81.7764 87° East 458 527 41,000  Level Cleveland Center
10:02PM 42.4661 -81.5992 88° East 458 527 41,000  Level Cleveland Center
10:03PM 42.4675 -81.4247 89° East 460 529 41,000  Level Cleveland Center
10:04PM 42.4728 -81.2728 87° East 460 529 41,000  Level Cleveland Center
10:05PM 42.4758 -81.1011 89° East 460 529 41,000  Level Cleveland Center
10:06PM 42.4783 -80.9239 89° East 460 529 41,000  Level Cleveland Center
10:07PM 42.4789 -80.7519 90° East 460 529 41,000  Level Cleveland Center
10:08PM 42.4811 -80.5803 89° East 455 524 41,000  Level Cleveland Center
10:09PM 42.4850 -80.3889 88° East 455 524 41,000  Level Cleveland Center
10:10PM 42.4867 -80.2172 89° East 455 524 41,000  Level Cleveland Center
10:11PM 42.4881 -80.0453 89° East 455 524 41,000  Level Cleveland Center
10:12PM 42.4914 -79.8736 88° East 455 524 41,000  Level Cleveland Center
10:13PM 42.4903 -79.6992 90° East 455 524 41,000  Level Cleveland Center
10:14PM 42.4928 -79.5272 89° East 455 524 41,000  Level Cleveland Center
10:15PM 42.4933 -79.3528 90° East 455 524 41,000  Level Cleveland Center
10:16PM 42.4997 -79.1808 87° East 455 524 41,000  Level Cleveland Center
10:17PM 42.5100 -79.0086 85° East 461 531 41,000  Level Cleveland Center
10:18PM 42.5219 -78.8336 85° East 466 536 41,000  Level Cleveland Center
10:19PM 42.5339 -78.6586 85° East 466 536 41,000  Level Cleveland Center
10:20PM 42.5436 -78.5006 85° East 467 537 41,000  Level Cleveland Center
10:21PM 42.5567 -78.3114 85° East 462 532 41,000  Level Cleveland Center
10:22PM 42.5658 -78.1503 86° East 462 532 41,000  Level Cleveland Center
10:23PM 42.5767 -77.9778 85° East 462 532 41,000  Level Cleveland Center
10:24PM 42.5869 -77.7856 86° East 462 532 41,000  Level Cleveland Center
10:25PM 42.5972 -77.6131 85° East 462 532 41,000  Level Cleveland Center
10:26PM 42.6039 -77.4717 86° East 462 532 41,000  Level Cleveland Center
10:29PM 42.6297 -77.0011 86° East 459 528 41,000  Level Boston Center
10:30PM 42.6389 -76.8267 86° East 459 528 41,000  Level Boston Center
10:31PM 42.6475 -76.6494 86° East 459 528 41,000  Level Boston Center
10:32PM 42.6561 -76.4722 86° East 459 528 41,000  Level Boston Center
10:33PM 42.6644 -76.2919 86° East 459 528 41,000 -120 Level Boston Center
10:34PM 42.6633 -76.1364 91° East 459 528 40,800 -600 Descending Boston Center
10:35PM 42.6608 -75.9528 91° East 464 534 39,800 -1,140 Descending Boston Center
10:36PM 42.6581 -75.7689 91° East 476 548 38,600 -1,140 Descending Boston Center
10:37PM 42.6550 -75.5825 91° East 487 560 37,600 -840 Descending Boston Center
10:38PM 42.6514 -75.4014 91° East 487 560 37,000 -600 Descending Boston Center
10:39PM 42.6478 -75.2178 91° East 482 555 36,500 -1,320 Descending Boston Center
10:40PM 42.6461 -75.0258 91° East 488 562 34,400 -2,340 Descending Boston Center
10:41PM 42.6417 -74.8533 92° East 483 556 31,900 -2,580 Descending Boston Center
10:42PM 42.6369 -74.6669 92° East 478 550 29,300 -1,500 Descending Boston Center
10:43PM 42.6322 -74.4806 92° East 478 550 29,000 -480 Descending Boston Center
10:44PM 42.6269 -74.2997 92° East 483 556 28,400 -540 Descending Boston Center
10:45PM 42.6214 -74.1161 92° East 478 550 28,000 -240 Descending Boston Center
10:46PM 42.6158 -73.9269 92° East 484 557 28,000  Level Boston Center
10:47PM 42.6097 -73.7406 92° East 489 563 28,000  Level Boston Center
10:48PM 42.6075 -73.5486 91° East 500 575 28,000  Level Boston Center
10:49PM 42.6008 -73.3625 93° East 500 575 28,000  Level Boston Center
10:50PM 42.5939 -73.1650 93° East 508 585 28,000 -240 Level Boston Center
10:51PM 42.5867 -72.9758 93° East 508 585 27,600 -840 Descending Boston Center
10:52PM 42.5769 -72.7953 94° East 495 570 26,400 -1,320 Descending Boston Center
10:53PM 42.5711 -72.6514 93° East 490 564 25,000 -2,400 Descending Boston Center
10:54PM 42.5631 -72.4372 93° East 475 547 21,600 -3,720 Descending Boston Center
10:55PM 42.5567 -72.2681 93° East 442 509 17,600 -3,840 Descending Boston Center
10:56PM 42.5481 -72.1272 95° East 412 474 14,000 -3,840 Descending Boston Center
10:57PM 42.5369 -71.9694 95° East 400 460 10,000 -3,300 Descending Boston Center
10:58PM 42.5261 -71.8597 98° East 350 403 7,500 -2,040 Descending Boston Center
10:59PM 42.5169 -71.7414 96° East 304 350 6,000 -960 Descending Boston Center
11:00PM 42.5122 -71.6431 94° East 288 331 5,600 -780 Descending Boston Center
11:00PM 42.5167 -71.5833 84° East 293 337 5,000 -1,440 Descending KA90
11:01PM 42.5167 -71.4667 90° East 279 321 3,500 -960 Descending KA90
11:02PM 42.5167 -71.3833 90° East 258 297 3,000 -300 Descending KA90
11:04PM 42.5108 -71.2458 93° East 238 274 2,800 1,140 Descending Boston Center
11:05PM 42.5097 -71.1531 91° East 238 274 6,000 1,560 Climbing Boston Center
11:06PM 42.5089 -71.0628 91° East 238 274 6,000  Level Boston Center
11:07PM 42.5075 -70.9700 91° East 238 274 6,000  Level Boston Center
11:08PM 42.5072 -70.9333 91° East 238 274 6,000  Level Boston Center
11:10PM 42.5072 -70.9333 312° West 238 274 6,000  Level Boston Center
11:12PM 42.5072 -70.9333 312° West 238 274 6,000  Level Boston Center
11:14PM 42.4780 -71.1867 261° West  Level FlightAware Approximate